createdAt,value
2018-01-30T00:00:55.123Z,0
2018-01-30T00:02:17.048Z,0
2018-01-30T00:03:39.168Z,0
2018-01-30T00:05:01.087Z,0
2018-01-30T00:06:22.952Z,0
2018-01-30T00:07:44.814Z,0
2018-01-30T00:09:06.424Z,0
2018-01-30T00:10:28.400Z,0
2018-01-30T00:11:50.181Z,0
2018-01-30T00:13:12.074Z,0
2018-01-30T00:14:34.323Z,0
2018-01-30T00:15:56.225Z,0
2018-01-30T00:17:18.073Z,0
2018-01-30T00:18:39.913Z,0
2018-01-30T00:20:01.517Z,0
2018-01-30T00:21:22.955Z,0
2018-01-30T00:22:45.068Z,0
2018-01-30T00:24:06.714Z,0
2018-01-30T00:25:28.591Z,0
2018-01-30T00:26:50.252Z,0
2018-01-30T00:28:11.844Z,0
2018-01-30T00:29:33.696Z,0
2018-01-30T00:30:55.562Z,0
2018-01-30T00:32:16.894Z,0
2018-01-30T00:33:39.090Z,0
2018-01-30T00:35:01.207Z,0
2018-01-30T00:36:23.071Z,0
2018-01-30T00:37:45.003Z,0
2018-01-30T00:39:06.605Z,0
2018-01-30T00:40:28.724Z,0
2018-01-30T00:41:50.282Z,0
2018-01-30T00:43:12.222Z,0
2018-01-30T00:44:34.138Z,0
2018-01-30T00:45:56.012Z,0
2018-01-30T00:47:17.982Z,0
2018-01-30T00:48:39.912Z,0
2018-01-30T00:50:02.032Z,0
2018-01-30T00:51:23.912Z,0
2018-01-30T00:52:45.766Z,0
2018-01-30T00:54:07.643Z,0
2018-01-30T00:55:29.222Z,0
2018-01-30T00:56:51.085Z,0
2018-01-30T00:58:13.248Z,0
2018-01-30T00:59:35.358Z,0
2018-01-30T01:00:56.959Z,0
2018-01-30T01:02:18.816Z,0
2018-01-30T01:03:40.957Z,0
2018-01-30T01:05:02.541Z,0
2018-01-30T01:06:24.680Z,0
2018-01-30T01:07:46.552Z,0
2018-01-30T01:09:08.693Z,0
2018-01-30T01:10:30.336Z,0
2018-01-30T01:11:52.025Z,0
2018-01-30T01:13:14.243Z,0
2018-01-30T01:14:35.892Z,0
2018-01-30T01:15:58.012Z,0
2018-01-30T01:17:19.605Z,0
2018-01-30T01:18:41.183Z,0
2018-01-30T01:20:03.306Z,0
2018-01-30T01:21:25.422Z,0
2018-01-30T01:22:47.140Z,0
2018-01-30T01:24:08.999Z,0
2018-01-30T01:25:30.612Z,0
2018-01-30T01:26:53.024Z,0
2018-01-30T01:28:14.637Z,0
2018-01-30T01:29:36.918Z,0
2018-01-30T01:30:59.032Z,0
2018-01-30T01:32:21.018Z,0
2018-01-30T01:33:43.244Z,0
2018-01-30T01:35:05.101Z,0
2018-01-30T01:36:26.966Z,0
2018-01-30T01:37:48.809Z,0
2018-01-30T01:39:10.766Z,0
2018-01-30T01:40:32.480Z,0
2018-01-30T01:41:54.601Z,0
2018-01-30T01:43:16.506Z,0
2018-01-30T01:44:38.363Z,0
2018-01-30T01:46:00.215Z,0
2018-01-30T01:47:22.095Z,0
2018-01-30T01:48:44.455Z,0
2018-01-30T01:50:06.057Z,0
2018-01-30T01:51:27.151Z,0
2018-01-30T01:52:49.004Z,0
2018-01-30T01:54:11.116Z,0
2018-01-30T01:55:32.973Z,0
2018-01-30T01:56:54.858Z,0
2018-01-30T01:58:16.754Z,0
2018-01-30T01:59:38.874Z,0
2018-01-30T02:01:00.730Z,0
2018-01-30T02:02:22.044Z,0
2018-01-30T02:03:43.907Z,0
2018-01-30T02:05:05.275Z,0
2018-01-30T02:06:26.647Z,0
2018-01-30T02:07:48.035Z,0
2018-01-30T02:09:09.644Z,0
2018-01-30T02:10:31.487Z,0
2018-01-30T02:11:53.074Z,0
2018-01-30T02:13:14.954Z,0
2018-01-30T02:14:36.550Z,0
2018-01-30T02:15:58.604Z,0
2018-01-30T02:17:20.489Z,0
2018-01-30T02:18:42.360Z,0
2018-01-30T02:20:03.791Z,0
2018-01-30T02:21:25.495Z,0
2018-01-30T02:22:47.114Z,0
2018-01-30T02:24:08.811Z,0
2018-01-30T02:25:30.484Z,0
2018-01-30T02:26:52.935Z,0
2018-01-30T02:28:14.568Z,0
2018-01-30T02:29:35.711Z,0
2018-01-30T02:30:57.597Z,0
2018-01-30T02:32:20.030Z,0
2018-01-30T02:33:41.383Z,0
2018-01-30T02:35:03.266Z,0
2018-01-30T02:36:25.140Z,0
2018-01-30T02:37:47.534Z,0
2018-01-30T02:39:09.468Z,0
2018-01-30T02:40:31.393Z,0
2018-01-30T02:41:53.044Z,0
2018-01-30T02:43:14.704Z,0
2018-01-30T02:44:36.963Z,0
2018-01-30T02:45:58.637Z,0
2018-01-30T02:47:19.960Z,0
2018-01-30T02:48:41.673Z,0
2018-01-30T02:50:03.817Z,0
2018-01-30T02:51:25.430Z,0
2018-01-30T02:52:47.270Z,0
2018-01-30T02:54:08.914Z,0
2018-01-30T02:55:30.805Z,0
2018-01-30T02:56:52.390Z,0
2018-01-30T02:58:13.984Z,0
2018-01-30T02:59:35.884Z,0
2018-01-30T03:00:57.793Z,0
2018-01-30T03:02:19.634Z,0
2018-01-30T03:03:41.213Z,0
2018-01-30T03:05:02.835Z,0
2018-01-30T03:06:24.670Z,0
2018-01-30T03:07:46.860Z,0
2018-01-30T03:09:08.595Z,0
2018-01-30T03:10:30.435Z,0
2018-01-30T03:11:52.056Z,0
2018-01-30T03:13:13.645Z,0
2018-01-30T03:14:35.852Z,0
2018-01-30T03:15:57.245Z,0
2018-01-30T03:17:19.132Z,0
2018-01-30T03:18:40.824Z,0
2018-01-30T03:20:02.471Z,0
2018-01-30T03:21:24.334Z,0
2018-01-30T03:22:46.552Z,0
2018-01-30T03:24:08.150Z,0
2018-01-30T03:25:29.757Z,0
2018-01-30T03:26:51.874Z,0
2018-01-30T03:28:13.734Z,0
2018-01-30T03:29:35.584Z,0
2018-01-30T03:30:57.465Z,0
2018-01-30T03:32:19.522Z,0
2018-01-30T03:33:40.858Z,0
2018-01-30T03:35:02.034Z,0
2018-01-30T03:36:23.631Z,0
2018-01-30T03:37:45.261Z,0
2018-01-30T03:39:06.603Z,0
2018-01-30T03:40:28.246Z,0
2018-01-30T03:41:50.183Z,0
2018-01-30T03:43:11.865Z,0
2018-01-30T03:44:33.193Z,0
2018-01-30T03:45:54.517Z,0
2018-01-30T03:47:16.415Z,0
2018-01-30T03:48:38.264Z,0
2018-01-30T03:50:00.113Z,0
2018-01-30T03:51:21.445Z,0
2018-01-30T03:52:42.791Z,0
2018-01-30T03:54:04.647Z,0
2018-01-30T03:55:26.304Z,0
2018-01-30T03:56:48.408Z,0
2018-01-30T03:58:09.745Z,0
2018-01-30T03:59:31.711Z,0
2018-01-30T04:00:53.706Z,0
2018-01-30T04:02:15.555Z,0
2018-01-30T04:03:36.898Z,0
2018-01-30T04:04:58.736Z,0
2018-01-30T04:06:20.614Z,0
2018-01-30T04:07:42.236Z,0
2018-01-30T04:09:03.820Z,0
2018-01-30T04:10:24.900Z,0
2018-01-30T04:11:46.533Z,0
2018-01-30T04:13:07.858Z,0
2018-01-30T04:14:29.711Z,0
2018-01-30T04:15:51.701Z,0
2018-01-30T04:17:12.895Z,0
2018-01-30T04:18:35.000Z,0
2018-01-30T04:19:56.353Z,0
2018-01-30T04:21:18.555Z,0
2018-01-30T04:22:40.503Z,0
2018-01-30T04:24:02.193Z,0
2018-01-30T04:25:24.424Z,0
2018-01-30T04:26:46.858Z,0
2018-01-30T04:28:08.505Z,0
2018-01-30T04:29:30.118Z,0
2018-01-30T04:30:51.728Z,0
2018-01-30T04:32:13.322Z,0
2018-01-30T04:33:34.934Z,0
2018-01-30T04:34:56.580Z,0
2018-01-30T04:36:18.694Z,0
2018-01-30T04:37:40.807Z,0
2018-01-30T04:39:03.896Z,0
2018-01-30T04:40:25.518Z,0
2018-01-30T04:41:47.365Z,0
2018-01-30T04:43:09.495Z,0
2018-01-30T04:44:31.092Z,0
2018-01-30T04:45:52.709Z,0
2018-01-30T04:47:14.418Z,0
2018-01-30T04:48:36.528Z,0
2018-01-30T04:49:58.130Z,0
2018-01-30T04:51:20.033Z,0
2018-01-30T04:52:41.644Z,0
2018-01-30T04:54:03.501Z,0
2018-01-30T04:55:25.370Z,0
2018-01-30T04:56:47.233Z,0
2018-01-30T04:58:08.834Z,0
2018-01-30T04:59:30.703Z,0
2018-01-30T05:00:52.043Z,0
2018-01-30T05:02:13.374Z,0
2018-01-30T05:03:35.199Z,0
2018-01-30T05:04:56.853Z,0
2018-01-30T05:06:18.198Z,0
2018-01-30T05:07:40.090Z,0
2018-01-30T05:09:02.029Z,0
2018-01-30T05:10:23.905Z,0
2018-01-30T05:11:45.278Z,0
2018-01-30T05:13:07.141Z,0
2018-01-30T05:14:29.182Z,0
2018-01-30T05:15:50.769Z,0
2018-01-30T05:17:12.378Z,0
2018-01-30T05:18:34.222Z,0
2018-01-30T05:19:56.454Z,0
2018-01-30T05:21:18.164Z,0
2018-01-30T05:22:39.760Z,0
2018-01-30T05:24:01.354Z,0
2018-01-30T05:25:23.194Z,0
2018-01-30T05:26:45.316Z,0
2018-01-30T05:28:06.750Z,0
2018-01-30T05:29:28.685Z,0
2018-01-30T05:30:50.548Z,0
2018-01-30T05:32:12.433Z,0
2018-01-30T05:33:34.118Z,0
2018-01-30T05:34:56.236Z,0
2018-01-30T05:36:17.950Z,0
2018-01-30T05:37:39.569Z,0
2018-01-30T05:39:01.431Z,0
2018-01-30T05:40:23.446Z,0
2018-01-30T05:41:45.592Z,0
2018-01-30T05:43:07.294Z,0
2018-01-30T05:44:29.464Z,0
2018-01-30T05:45:51.365Z,0
2018-01-30T05:47:13.274Z,0
2018-01-30T05:48:34.914Z,0
2018-01-30T05:49:57.144Z,0
2018-01-30T05:51:19.393Z,0
2018-01-30T05:52:41.584Z,0
2018-01-30T05:54:03.459Z,0
2018-01-30T05:55:25.704Z,0
2018-01-30T05:56:47.807Z,0
2018-01-30T05:58:09.974Z,0
2018-01-30T05:59:31.584Z,0
2018-01-30T06:00:53.244Z,0
2018-01-30T06:02:15.172Z,0
2018-01-30T06:03:37.313Z,0
2018-01-30T06:04:59.192Z,0
2018-01-30T06:06:21.007Z,0
2018-01-30T06:07:42.638Z,0
2018-01-30T06:09:04.587Z,0
2018-01-30T06:10:26.898Z,0
2018-01-30T06:11:49.032Z,0
2018-01-30T06:13:10.630Z,0
2018-01-30T06:14:32.498Z,0
2018-01-30T06:15:54.672Z,0
2018-01-30T06:17:16.371Z,0
2018-01-30T06:18:37.975Z,0
2018-01-30T06:19:59.932Z,0
2018-01-30T06:21:21.521Z,0
2018-01-30T06:22:42.846Z,0
2018-01-30T06:24:04.734Z,0
2018-01-30T06:25:26.580Z,0
2018-01-30T06:26:48.284Z,0
2018-01-30T06:28:09.891Z,0
2018-01-30T06:29:31.994Z,0
2018-01-30T06:30:54.101Z,0
2018-01-30T06:32:15.952Z,0
2018-01-30T06:33:37.342Z,0
2018-01-30T06:34:59.468Z,0
2018-01-30T06:36:21.334Z,0
2018-01-30T06:37:43.542Z,0
2018-01-30T06:39:05.654Z,0
2018-01-30T06:40:27.503Z,0
2018-01-30T06:41:49.101Z,0
2018-01-30T06:43:10.595Z,0
2018-01-30T06:44:32.531Z,0
2018-01-30T06:45:54.392Z,0
2018-01-30T06:47:16.270Z,0
2018-01-30T06:48:38.416Z,0
2018-01-30T06:50:00.551Z,0
2018-01-30T06:51:22.085Z,0
2018-01-30T06:52:44.182Z,0
2018-01-30T06:54:06.037Z,0
2018-01-30T06:55:27.873Z,0
2018-01-30T06:56:49.968Z,0
2018-01-30T06:58:11.301Z,0
2018-01-30T06:59:32.908Z,0
2018-01-30T07:00:55.022Z,0
2018-01-30T07:02:17.297Z,0
2018-01-30T07:03:39.298Z,0
2018-01-30T07:05:01.472Z,5
2018-01-30T07:06:23.218Z,5
2018-01-30T07:07:44.883Z,5
2018-01-30T07:09:06.830Z,5
2018-01-30T07:10:28.842Z,5
2018-01-30T07:11:50.774Z,5
2018-01-30T07:13:12.962Z,10
2018-01-30T07:14:34.822Z,10
2018-01-30T07:15:57.083Z,10
2018-01-30T07:17:18.703Z,10
2018-01-30T07:18:40.556Z,15
2018-01-30T07:20:02.755Z,15
2018-01-30T07:21:24.635Z,15
2018-01-30T07:22:46.241Z,15
2018-01-30T07:24:07.845Z,20
2018-01-30T07:25:30.969Z,20
2018-01-30T07:26:53.508Z,20
2018-01-30T07:28:15.682Z,25
2018-01-30T07:29:37.536Z,25
2018-01-30T07:30:59.452Z,25
2018-01-30T07:32:21.047Z,25
2018-01-30T07:33:42.922Z,30
2018-01-30T07:35:04.631Z,30
2018-01-30T07:36:26.218Z,30
2018-01-30T07:37:47.552Z,35
2018-01-30T07:39:09.779Z,35
2018-01-30T07:40:32.014Z,40
2018-01-30T07:41:53.611Z,40
2018-01-30T07:43:15.736Z,40
2018-01-30T07:44:37.892Z,45
2018-01-30T07:45:59.759Z,45
2018-01-30T07:47:21.765Z,50
2018-01-30T07:48:43.422Z,50
2018-01-30T07:50:05.474Z,55
2018-01-30T07:51:27.372Z,55
2018-01-30T07:52:49.028Z,55
2018-01-30T07:54:10.928Z,60
2018-01-30T07:55:32.012Z,65
2018-01-30T07:56:53.602Z,60
2018-01-30T07:58:15.485Z,65
2018-01-30T07:59:37.633Z,70
2018-01-30T08:00:59.593Z,65
2018-01-30T08:02:21.552Z,65
2018-01-30T08:03:43.762Z,65
2018-01-30T08:05:05.494Z,65
2018-01-30T08:06:27.601Z,65
2018-01-30T08:07:49.479Z,70
2018-01-30T08:09:11.694Z,70
2018-01-30T08:10:33.842Z,65
2018-01-30T08:11:55.750Z,70
2018-01-30T08:13:17.362Z,75
2018-01-30T08:14:39.243Z,75
2018-01-30T08:16:00.883Z,75
2018-01-30T08:17:22.425Z,70
2018-01-30T08:18:44.538Z,75
2018-01-30T08:20:06.390Z,80
2018-01-30T08:21:27.740Z,80
2018-01-30T08:22:49.906Z,85
2018-01-30T08:24:11.752Z,95
2018-01-30T08:25:33.609Z,85
2018-01-30T08:26:55.727Z,90
2018-01-30T08:28:17.368Z,90
2018-01-30T08:29:39.478Z,90
2018-01-30T08:31:01.609Z,90
2018-01-30T08:32:23.245Z,90
2018-01-30T08:33:44.844Z,95
2018-01-30T08:35:06.778Z,95
2018-01-30T08:36:28.739Z,95
2018-01-30T08:37:50.629Z,100
2018-01-30T08:39:12.489Z,100
2018-01-30T08:40:34.372Z,100
2018-01-30T08:41:56.297Z,95
2018-01-30T08:43:17.927Z,105
2018-01-30T08:44:39.554Z,105
2018-01-30T08:46:01.271Z,105
2018-01-30T08:47:23.253Z,105
2018-01-30T08:48:44.893Z,105
2018-01-30T08:50:06.493Z,100
2018-01-30T08:51:28.095Z,100
2018-01-30T08:52:50.052Z,105
2018-01-30T08:54:12.030Z,120
2018-01-30T08:55:33.646Z,125
2018-01-30T08:56:55.524Z,105
2018-01-30T08:58:17.385Z,105
2018-01-30T08:59:39.335Z,105
2018-01-30T09:01:01.439Z,100
2018-01-30T09:02:23.071Z,100
2018-01-30T09:03:45.206Z,100
2018-01-30T09:05:07.131Z,95
2018-01-30T09:06:28.714Z,95
2018-01-30T09:07:50.346Z,95
2018-01-30T09:09:12.316Z,100
2018-01-30T09:10:34.193Z,95
2018-01-30T09:11:55.786Z,105
2018-01-30T09:13:17.662Z,105
2018-01-30T09:14:39.532Z,110
2018-01-30T09:16:01.477Z,110
2018-01-30T09:17:23.310Z,120
2018-01-30T09:18:44.934Z,115
2018-01-30T09:20:06.379Z,120
2018-01-30T09:21:28.492Z,135
2018-01-30T09:22:50.232Z,130
2018-01-30T09:24:11.903Z,140
2018-01-30T09:25:33.884Z,160
2018-01-30T09:26:55.739Z,150
2018-01-30T09:28:17.366Z,150
2018-01-30T09:29:39.252Z,155
2018-01-30T09:31:00.855Z,140
2018-01-30T09:32:23.076Z,135
2018-01-30T09:33:45.302Z,130
2018-01-30T09:35:09.083Z,125
2018-01-30T09:36:31.007Z,115
2018-01-30T09:37:53.906Z,120
2018-01-30T09:39:16.135Z,115
2018-01-30T09:40:38.028Z,115
2018-01-30T09:41:59.910Z,110
2018-01-30T09:43:21.758Z,105
2018-01-30T09:44:42.900Z,100
2018-01-30T09:46:05.036Z,105
2018-01-30T09:47:28.090Z,110
2018-01-30T09:48:50.301Z,115
2018-01-30T09:50:12.599Z,115
2018-01-30T09:51:34.388Z,120
2018-01-30T09:52:56.508Z,115
2018-01-30T09:54:18.427Z,120
2018-01-30T09:55:40.395Z,125
2018-01-30T09:57:02.723Z,125
2018-01-30T09:58:24.340Z,120
2018-01-30T09:59:46.229Z,135
2018-01-30T10:01:08.091Z,130
2018-01-30T10:02:30.225Z,135
2018-01-30T10:03:51.564Z,135
2018-01-30T10:05:13.446Z,155
2018-01-30T10:06:35.366Z,170
2018-01-30T10:07:56.872Z,145
2018-01-30T10:09:18.502Z,140
2018-01-30T10:10:40.541Z,145
2018-01-30T10:12:02.393Z,155
2018-01-30T10:13:24.382Z,140
2018-01-30T10:14:46.305Z,130
2018-01-30T10:16:08.533Z,125
2018-01-30T10:17:30.680Z,130
2018-01-30T10:18:52.641Z,120
2018-01-30T10:20:14.970Z,125
2018-01-30T10:21:36.600Z,125
2018-01-30T10:22:58.263Z,120
2018-01-30T10:24:20.458Z,120
2018-01-30T10:25:42.046Z,135
2018-01-30T10:27:03.690Z,145
2018-01-30T10:28:25.469Z,145
2018-01-30T10:29:47.580Z,145
2018-01-30T10:31:09.752Z,145
2018-01-30T10:32:31.502Z,135
2018-01-30T10:33:53.386Z,135
2018-01-30T10:35:15.537Z,140
2018-01-30T10:36:37.400Z,125
2018-01-30T10:37:59.503Z,125
2018-01-30T10:39:21.393Z,110
2018-01-30T10:40:43.263Z,120
2018-01-30T10:42:05.231Z,125
2018-01-30T10:43:27.249Z,145
2018-01-30T10:44:49.378Z,150
2018-01-30T10:46:11.010Z,140
2018-01-30T10:47:32.713Z,130
2018-01-30T10:48:54.674Z,135
2018-01-30T10:50:16.628Z,135
2018-01-30T10:51:38.926Z,125
2018-01-30T10:53:00.874Z,125
2018-01-30T10:54:23.135Z,125
2018-01-30T10:55:44.502Z,135
2018-01-30T10:57:06.115Z,140
2018-01-30T10:58:27.713Z,135
2018-01-30T10:59:49.855Z,145
2018-01-30T11:01:11.989Z,125
2018-01-30T11:02:33.913Z,140
2018-01-30T11:03:56.062Z,145
2018-01-30T11:05:18.167Z,150
2018-01-30T11:06:40.037Z,170
2018-01-30T11:08:01.513Z,180
2018-01-30T11:09:23.423Z,185
2018-01-30T11:10:45.027Z,180
2018-01-30T11:12:06.730Z,165
2018-01-30T11:13:28.360Z,135
2018-01-30T11:14:49.803Z,135
2018-01-30T11:16:11.305Z,130
2018-01-30T11:17:33.269Z,140
2018-01-30T11:18:55.418Z,150
2018-01-30T11:20:17.185Z,175
2018-01-30T11:21:38.802Z,145
2018-01-30T11:23:00.470Z,150
2018-01-30T11:24:22.353Z,180
2018-01-30T11:25:44.222Z,180
2018-01-30T11:27:06.366Z,165
2018-01-30T11:28:28.212Z,150
2018-01-30T11:29:49.564Z,145
2018-01-30T11:31:11.178Z,195
2018-01-30T11:32:33.345Z,205
2018-01-30T11:33:55.290Z,195
2018-01-30T11:35:17.161Z,205
2018-01-30T11:36:39.053Z,210
2018-01-30T11:38:00.985Z,200
2018-01-30T11:39:22.866Z,200
2018-01-30T11:40:44.087Z,190
2018-01-30T11:42:06.099Z,180
2018-01-30T11:43:27.781Z,180
2018-01-30T11:44:49.392Z,175
2018-01-30T11:46:11.253Z,170
2018-01-30T11:47:33.110Z,180
2018-01-30T11:48:55.011Z,180
2018-01-30T11:50:16.374Z,180
2018-01-30T11:51:37.999Z,180
2018-01-30T11:52:59.878Z,170
2018-01-30T11:54:21.720Z,155
2018-01-30T11:55:43.639Z,150
2018-01-30T11:57:05.731Z,150
2018-01-30T11:58:27.860Z,145
2018-01-30T11:59:49.515Z,150
2018-01-30T12:01:11.443Z,150
2018-01-30T12:02:33.321Z,155
2018-01-30T12:03:54.699Z,160
2018-01-30T12:05:17.009Z,170
2018-01-30T12:06:38.611Z,165
2018-01-30T12:08:00.800Z,165
2018-01-30T12:09:23.223Z,170
2018-01-30T12:10:44.879Z,165
2018-01-30T12:12:06.566Z,160
2018-01-30T12:13:28.708Z,145
2018-01-30T12:14:50.815Z,135
2018-01-30T12:16:12.921Z,150
2018-01-30T12:17:35.053Z,160
2018-01-30T12:18:57.322Z,175
2018-01-30T12:20:19.442Z,175
2018-01-30T12:21:41.506Z,150
2018-01-30T12:23:03.639Z,155
2018-01-30T12:24:25.744Z,140
2018-01-30T12:25:47.773Z,125
2018-01-30T12:27:09.372Z,120
2018-01-30T12:28:31.019Z,125
2018-01-30T12:29:52.897Z,120
2018-01-30T12:31:15.101Z,140
2018-01-30T12:32:36.518Z,145
2018-01-30T12:33:58.177Z,150
2018-01-30T12:35:20.292Z,155
2018-01-30T12:36:42.418Z,180
2018-01-30T12:38:04.318Z,185
2018-01-30T12:39:26.184Z,195
2018-01-30T12:40:47.290Z,190
2018-01-30T12:42:09.255Z,220
2018-01-30T12:43:31.249Z,230
2018-01-30T12:44:53.206Z,240
2018-01-30T12:46:15.200Z,240
2018-01-30T12:47:37.311Z,240
2018-01-30T12:48:59.722Z,245
2018-01-30T12:50:21.591Z,235
2018-01-30T12:51:43.492Z,230
2018-01-30T12:53:05.444Z,230
2018-01-30T12:54:27.719Z,220
2018-01-30T12:55:49.881Z,235
2018-01-30T12:57:12.044Z,225
2018-01-30T12:58:34.221Z,225
2018-01-30T12:59:56.394Z,240
2018-01-30T13:01:18.347Z,225
2018-01-30T13:02:40.090Z,230
2018-01-30T13:04:01.653Z,245
2018-01-30T13:05:23.242Z,260
2018-01-30T13:06:45.390Z,270
2018-01-30T13:08:06.735Z,260
2018-01-30T13:09:29.002Z,260
2018-01-30T13:10:51.116Z,250
2018-01-30T13:12:12.739Z,250
2018-01-30T13:13:34.890Z,250
2018-01-30T13:14:56.775Z,265
2018-01-30T13:16:18.941Z,270
2018-01-30T13:17:40.861Z,260
2018-01-30T13:19:02.463Z,255
2018-01-30T13:20:24.075Z,260
2018-01-30T13:21:45.193Z,250
2018-01-30T13:23:07.081Z,240
2018-01-30T13:24:29.256Z,225
2018-01-30T13:25:51.124Z,210
2018-01-30T13:27:13.039Z,200
2018-01-30T13:28:34.934Z,190
2018-01-30T13:29:57.219Z,185
2018-01-30T13:31:19.351Z,175
2018-01-30T13:32:41.534Z,165
2018-01-30T13:34:03.520Z,145
2018-01-30T13:35:25.657Z,130
2018-01-30T13:36:47.895Z,125
2018-01-30T13:38:09.800Z,120
2018-01-30T13:39:31.664Z,130
2018-01-30T13:40:53.305Z,130
2018-01-30T13:42:15.461Z,130
2018-01-30T13:43:37.414Z,135
2018-01-30T13:44:59.310Z,130
2018-01-30T13:46:21.499Z,135
2018-01-30T13:47:43.110Z,130
2018-01-30T13:49:05.613Z,110
2018-01-30T13:50:27.570Z,85
2018-01-30T13:51:49.441Z,95
2018-01-30T13:53:11.462Z,115
2018-01-30T13:54:33.587Z,125
2018-01-30T13:55:55.460Z,135
2018-01-30T13:57:17.505Z,105
2018-01-30T13:58:39.124Z,90
2018-01-30T14:00:01.310Z,105
2018-01-30T14:01:22.943Z,105
2018-01-30T14:02:45.104Z,100
2018-01-30T14:04:07.241Z,95
2018-01-30T14:05:29.383Z,90
2018-01-30T14:06:51.562Z,90
2018-01-30T14:08:13.190Z,95
2018-01-30T14:09:35.347Z,90
2018-01-30T14:10:57.804Z,90
2018-01-30T14:12:19.694Z,90
2018-01-30T14:13:41.840Z,90
2018-01-30T14:15:03.743Z,90
2018-01-30T14:16:25.998Z,90
2018-01-30T14:17:47.700Z,85
2018-01-30T14:19:09.583Z,85
2018-01-30T14:20:31.605Z,85
2018-01-30T14:21:53.910Z,85
2018-01-30T14:23:16.104Z,85
2018-01-30T14:24:38.252Z,85
2018-01-30T14:26:00.222Z,85
2018-01-30T14:27:21.906Z,80
2018-01-30T14:28:43.551Z,80
2018-01-30T14:30:05.717Z,80
2018-01-30T14:31:27.971Z,80
2018-01-30T14:32:49.949Z,85
2018-01-30T14:34:12.062Z,80
2018-01-30T14:35:34.248Z,75
2018-01-30T14:36:56.400Z,80
2018-01-30T14:38:18.299Z,90
2018-01-30T14:39:40.311Z,95
2018-01-30T14:41:02.550Z,100
2018-01-30T14:42:24.691Z,100
2018-01-30T14:43:46.836Z,100
2018-01-30T14:45:07.938Z,95
2018-01-30T14:46:29.854Z,85
2018-01-30T14:47:52.374Z,75
2018-01-30T14:49:14.406Z,70
2018-01-30T14:50:36.300Z,65
2018-01-30T14:51:58.252Z,65
2018-01-30T14:53:20.102Z,65
2018-01-30T14:54:41.772Z,65
2018-01-30T14:56:03.695Z,65
2018-01-30T14:57:25.842Z,65
2018-01-30T14:58:47.987Z,65
2018-01-30T15:00:10.147Z,60
2018-01-30T15:01:31.749Z,60
2018-01-30T15:02:53.095Z,60
2018-01-30T15:04:15.243Z,60
2018-01-30T15:05:37.547Z,60
2018-01-30T15:07:00.147Z,65
2018-01-30T15:08:22.283Z,60
2018-01-30T15:09:44.426Z,60
2018-01-30T15:11:06.031Z,60
2018-01-30T15:12:28.200Z,60
2018-01-30T15:13:49.888Z,60
2018-01-30T15:15:11.825Z,60
2018-01-30T15:16:34.844Z,55
2018-01-30T15:17:57.242Z,55
2018-01-30T15:19:19.424Z,55
2018-01-30T15:20:41.578Z,50
2018-01-30T15:22:03.722Z,50
2018-01-30T15:23:25.873Z,45
2018-01-30T15:24:48.136Z,45
2018-01-30T15:26:10.296Z,45
2018-01-30T15:27:32.196Z,40
2018-01-30T15:28:54.536Z,40
2018-01-30T15:30:16.749Z,35
2018-01-30T15:31:38.629Z,35
2018-01-30T15:33:00.515Z,35
2018-01-30T15:34:22.409Z,35
2018-01-30T15:35:44.439Z,30
2018-01-30T15:37:06.649Z,30
2018-01-30T15:38:28.784Z,25
2018-01-30T15:39:50.925Z,25
2018-01-30T15:41:13.070Z,20
2018-01-30T15:42:34.969Z,20
2018-01-30T15:43:56.871Z,20
2018-01-30T15:45:19.041Z,15
2018-01-30T15:46:40.655Z,15
2018-01-30T15:48:02.061Z,15
2018-01-30T15:49:24.273Z,10
2018-01-30T15:50:46.374Z,10
2018-01-30T15:52:08.381Z,10
2018-01-30T15:53:30.552Z,10
2018-01-30T15:54:52.435Z,10
2018-01-30T15:56:14.622Z,10
2018-01-30T15:57:36.348Z,5
2018-01-30T15:58:58.525Z,5
2018-01-30T16:00:20.913Z,5
2018-01-30T16:01:43.082Z,5
2018-01-30T16:03:05.276Z,5
2018-01-30T16:04:27.173Z,5
2018-01-30T16:05:49.572Z,5
2018-01-30T16:07:11.514Z,0
2018-01-30T16:08:33.677Z,0
2018-01-30T16:09:56.027Z,0
2018-01-30T16:11:17.933Z,0
2018-01-30T16:12:40.251Z,0
2018-01-30T16:14:02.503Z,0
2018-01-30T16:15:24.515Z,0
2018-01-30T16:16:46.690Z,0
2018-01-30T16:18:08.819Z,0
2018-01-30T16:19:30.974Z,0
2018-01-30T16:20:52.602Z,0
2018-01-30T16:22:14.781Z,0
2018-01-30T16:23:37.107Z,0
2018-01-30T16:24:59.350Z,0
2018-01-30T16:26:21.258Z,0
2018-01-30T16:27:43.500Z,0
2018-01-30T16:29:05.689Z,0
2018-01-30T16:30:27.356Z,0
2018-01-30T16:31:49.629Z,0
2018-01-30T16:33:11.581Z,0
2018-01-30T16:34:33.655Z,0
2018-01-30T16:35:55.882Z,0
2018-01-30T16:37:17.933Z,0
2018-01-30T16:38:39.832Z,0
2018-01-30T16:40:01.980Z,0
2018-01-30T16:41:24.203Z,0
2018-01-30T16:42:46.384Z,0
2018-01-30T16:44:08.802Z,0
2018-01-30T16:45:30.871Z,0
2018-01-30T16:46:53.001Z,0
2018-01-30T16:48:14.627Z,0
2018-01-30T16:49:36.789Z,0
2018-01-30T16:50:59.078Z,0
2018-01-30T16:52:21.293Z,0
2018-01-30T16:53:43.504Z,0
2018-01-30T16:55:05.458Z,0
2018-01-30T16:56:27.422Z,0
2018-01-30T16:57:49.653Z,0
2018-01-30T16:59:11.971Z,0
2018-01-30T17:00:34.125Z,0
2018-01-30T17:01:56.296Z,0
2018-01-30T17:03:18.599Z,0
2018-01-30T17:04:41.240Z,0
2018-01-30T17:06:03.403Z,0
2018-01-30T17:07:25.558Z,0
2018-01-30T17:08:47.739Z,0
2018-01-30T17:10:09.640Z,0
2018-01-30T17:11:31.599Z,0
2018-01-30T17:12:53.855Z,0
2018-01-30T17:14:15.772Z,0
2018-01-30T17:15:37.922Z,0
2018-01-30T17:16:59.893Z,0
2018-01-30T17:18:22.164Z,0
2018-01-30T17:19:44.500Z,0
2018-01-30T17:21:06.477Z,0
2018-01-30T17:22:28.623Z,0
2018-01-30T17:23:50.605Z,0
2018-01-30T17:25:12.882Z,0
2018-01-30T17:26:34.822Z,0
2018-01-30T17:27:56.527Z,0
2018-01-30T17:29:18.703Z,0
2018-01-30T17:30:40.628Z,0
2018-01-30T17:32:02.652Z,0
2018-01-30T17:33:24.645Z,0
2018-01-30T17:34:46.545Z,0
2018-01-30T17:36:08.716Z,0
2018-01-30T17:37:30.873Z,0
2018-01-30T17:38:52.770Z,0
2018-01-30T17:40:14.910Z,0
2018-01-30T17:41:37.147Z,0
2018-01-30T17:42:59.063Z,0
2018-01-30T17:44:21.243Z,0
2018-01-30T17:45:43.128Z,0
2018-01-30T17:47:05.022Z,0
2018-01-30T17:48:26.908Z,0
2018-01-30T17:49:48.828Z,0
2018-01-30T17:51:10.819Z,0
2018-01-30T17:52:32.947Z,0
2018-01-30T17:53:54.392Z,0
2018-01-30T17:55:16.559Z,0
2018-01-30T17:56:38.474Z,0
2018-01-30T17:58:00.720Z,0
2018-01-30T17:59:23.103Z,0
2018-01-30T18:00:45.387Z,0
2018-01-30T18:02:07.564Z,0
2018-01-30T18:03:29.854Z,0
2018-01-30T18:04:52.102Z,0
2018-01-30T18:06:14.293Z,0
2018-01-30T18:07:36.222Z,0
2018-01-30T18:08:58.373Z,0
2018-01-30T18:10:20.548Z,0
2018-01-30T18:11:42.176Z,0
2018-01-30T18:13:04.360Z,0
2018-01-30T18:14:26.229Z,0
2018-01-30T18:15:48.129Z,0
2018-01-30T18:17:10.315Z,0
2018-01-30T18:18:32.552Z,0
2018-01-30T18:19:54.879Z,0
2018-01-30T18:21:16.792Z,0
2018-01-30T18:22:38.867Z,0
2018-01-30T18:24:00.790Z,0
2018-01-30T18:25:22.760Z,0
2018-01-30T18:26:45.000Z,0
2018-01-30T18:28:06.910Z,0
2018-01-30T18:29:28.804Z,0
2018-01-30T18:30:51.012Z,0
2018-01-30T18:32:12.654Z,0
2018-01-30T18:33:34.835Z,0
2018-01-30T18:34:56.742Z,0
2018-01-30T18:36:18.670Z,0
2018-01-30T18:37:40.937Z,0
2018-01-30T18:39:03.105Z,0
2018-01-30T18:40:25.103Z,0
2018-01-30T18:41:46.725Z,0
2018-01-30T18:43:08.802Z,0
2018-01-30T18:44:30.712Z,0
2018-01-30T18:45:52.964Z,0
2018-01-30T18:47:15.119Z,0
2018-01-30T18:48:37.283Z,0
2018-01-30T18:49:59.444Z,0
2018-01-30T18:51:21.652Z,0
2018-01-30T18:52:43.973Z,0
2018-01-30T18:54:06.138Z,0
2018-01-30T18:55:28.004Z,0
2018-01-30T18:56:49.967Z,0
2018-01-30T18:58:11.588Z,0
2018-01-30T18:59:33.731Z,0
2018-01-30T19:00:55.917Z,0
2018-01-30T19:02:17.796Z,0
2018-01-30T19:03:39.432Z,0
2018-01-30T19:05:01.574Z,0
2018-01-30T19:06:23.751Z,0
2018-01-30T19:07:45.632Z,0
2018-01-30T19:09:07.537Z,0
2018-01-30T19:10:29.281Z,0
2018-01-30T19:11:51.504Z,0
2018-01-30T19:13:13.682Z,0
2018-01-30T19:14:35.842Z,0
2018-01-30T19:15:58.002Z,0
2018-01-30T19:17:19.771Z,0
2018-01-30T19:18:41.684Z,0
2018-01-30T19:20:03.876Z,0
2018-01-30T19:21:26.103Z,0
2018-01-30T19:22:47.992Z,0
2018-01-30T19:24:10.041Z,0
2018-01-30T19:25:31.422Z,0
2018-01-30T19:26:53.418Z,0
2018-01-30T19:28:15.853Z,0
2018-01-30T19:29:38.041Z,0
2018-01-30T19:30:59.934Z,0
2018-01-30T19:32:22.184Z,0
2018-01-30T19:33:44.513Z,0
2018-01-30T19:35:06.214Z,0
2018-01-30T19:36:28.112Z,0
2018-01-30T19:37:50.376Z,0
2018-01-30T19:39:12.523Z,0
2018-01-30T19:40:34.771Z,0